createdAt,value
2019-02-17T08:28:16.655Z,89.67
2019-02-17T08:29:16.641Z,89.67
2019-02-17T08:30:16.646Z,90.14
2019-02-17T08:31:16.653Z,89.95
2019-02-17T08:32:16.670Z,89.38
2019-02-17T08:33:16.681Z,89.38
2019-02-17T08:34:16.864Z,89.28
2019-02-17T08:35:16.703Z,89.38
2019-02-17T08:36:16.691Z,89.28
2019-02-17T08:37:16.703Z,88.76
2019-02-17T08:38:16.708Z,88.57
2019-02-17T08:39:16.738Z,87.90
2019-02-17T08:40:16.738Z,87.43
2019-02-17T08:41:16.740Z,86.95
2019-02-17T08:42:16.793Z,86.10
2019-02-17T08:43:16.746Z,86.05
2019-02-17T08:44:16.752Z,85.10
2019-02-17T08:45:16.788Z,84.72
2019-02-17T08:46:16.765Z,84.05
2019-02-17T08:47:16.785Z,83.81
2019-02-17T08:48:16.795Z,83.23
2019-02-17T08:49:16.806Z,82.76
2019-02-17T08:50:16.815Z,81.81
2019-02-17T08:51:16.832Z,81.56
2019-02-17T08:52:16.843Z,80.90
2019-02-17T08:53:16.959Z,80.42
2019-02-17T08:54:16.868Z,79.70
2019-02-17T08:55:16.873Z,79.60
2019-02-17T08:56:18.701Z,78.56
2019-02-17T08:57:16.892Z,77.98
2019-02-17T08:58:16.914Z,77.36
2019-02-17T08:59:16.914Z,76.88
2019-02-17T09:00:16.947Z,76.40
2019-02-17T09:01:16.948Z,75.74
2019-02-17T09:02:16.950Z,75.55
2019-02-17T09:03:16.965Z,74.88
2019-02-17T09:04:16.975Z,74.79
2019-02-17T09:05:16.987Z,74.50
2019-02-17T09:06:16.998Z,74.63
2019-02-17T09:07:17.011Z,74.63
2019-02-17T09:08:17.023Z,74.06
2019-02-17T09:09:17.057Z,73.52
2019-02-17T09:10:17.045Z,72.96
2019-02-17T09:11:17.062Z,72.00
2019-02-17T09:12:17.081Z,71.72
2019-02-17T09:13:18.571Z,70.79
2019-02-17T09:14:17.100Z,70.89
2019-02-17T09:15:17.115Z,69.84
2019-02-17T09:16:17.134Z,69.17
2019-02-17T09:17:17.147Z,68.82
2019-02-17T09:18:17.152Z,68.35
2019-02-17T09:19:17.177Z,68.26
2019-02-17T09:20:17.182Z,67.81
2019-02-17T09:21:17.201Z,67.14
2019-02-17T09:22:17.215Z,66.38
2019-02-17T09:23:17.226Z,66.47
2019-02-17T09:24:17.247Z,66.47
2019-02-17T09:25:17.254Z,66.09
2019-02-17T09:26:17.267Z,65.74
2019-02-17T09:27:17.285Z,65.45
2019-02-17T09:28:17.298Z,65.07
2019-02-17T09:29:17.313Z,64.43
2019-02-17T09:30:17.330Z,63.86
2019-02-17T09:31:17.346Z,63.76
2019-02-17T09:32:17.352Z,63.39
2019-02-17T09:33:17.376Z,63.00
2019-02-17T09:34:17.384Z,62.33
2019-02-17T09:35:17.399Z,62.74
2019-02-17T09:36:17.411Z,62.27
2019-02-17T09:37:17.426Z,61.69
2019-02-17T09:38:17.448Z,61.54
2019-02-17T09:39:17.462Z,61.15
2019-02-17T09:40:17.471Z,60.00
2019-02-17T09:41:17.490Z,60.48
2019-02-17T09:42:17.516Z,60.10
2019-02-17T09:43:17.521Z,59.75
2019-02-17T09:44:17.533Z,59.45
2019-02-17T09:45:17.554Z,59.36
2019-02-17T09:46:17.558Z,58.98
2019-02-17T09:47:17.589Z,58.59
2019-02-17T09:48:17.590Z,59.17
2019-02-17T09:49:17.617Z,58.88
2019-02-17T09:50:17.635Z,59.08
2019-02-17T09:51:17.648Z,59.17
2019-02-17T09:52:17.656Z,59.11
2019-02-17T09:53:17.670Z,58.44
2019-02-17T09:54:17.747Z,57.86
2019-02-17T09:55:17.701Z,57.12
2019-02-17T09:56:17.714Z,57.21
2019-02-17T09:57:17.727Z,56.74
2019-02-17T09:58:17.747Z,56.54
2019-02-17T09:59:17.764Z,56.35
2019-02-17T10:00:17.769Z,55.87
2019-02-17T10:01:17.792Z,56.00
2019-02-17T10:02:26.320Z,55.58
2019-02-17T10:03:17.823Z,55.42
2019-02-17T10:04:17.836Z,55.52
2019-02-17T10:05:17.848Z,54.94
2019-02-17T10:06:17.861Z,54.94
2019-02-17T10:07:17.880Z,55.16
2019-02-17T10:08:17.896Z,54.30
2019-02-17T10:09:17.898Z,54.04
2019-02-17T10:10:17.924Z,53.08
2019-02-17T10:11:17.939Z,52.34
2019-02-17T10:12:17.956Z,52.05
2019-02-17T10:13:17.972Z,51.50
2019-02-17T10:14:17.995Z,50.37
2019-02-17T10:15:18.007Z,49.79
2019-02-17T10:16:18.029Z,49.33
2019-02-17T10:17:18.033Z,48.95
2019-02-17T10:18:18.060Z,48.30
2019-02-17T10:19:18.064Z,47.44
2019-02-17T10:20:18.090Z,47.05
2019-02-17T10:21:18.098Z,46.98
2019-02-17T10:22:18.118Z,46.23
2019-02-17T10:23:18.141Z,46.04
2019-02-17T10:24:18.153Z,45.20
2019-02-17T10:25:18.171Z,44.32
2019-02-17T10:26:18.179Z,44.23
2019-02-17T10:27:18.201Z,43.77
2019-02-17T10:28:18.213Z,43.29
2019-02-17T10:29:18.230Z,43.12
2019-02-17T10:30:18.253Z,42.44
2019-02-17T10:31:18.262Z,42.56
2019-02-17T10:32:18.281Z,41.81
2019-02-17T10:33:18.289Z,41.13
2019-02-17T10:34:18.320Z,40.67
2019-02-17T10:35:18.330Z,39.99
2019-02-17T10:36:18.349Z,40.75
2019-02-17T10:37:18.372Z,40.57
2019-02-17T10:38:18.439Z,40.38
2019-02-17T10:39:18.412Z,39.24
2019-02-17T10:40:18.418Z,38.95
2019-02-17T10:41:18.435Z,38.08
2019-02-17T10:42:18.458Z,38.20
2019-02-17T10:43:18.472Z,37.52
2019-02-17T10:44:18.489Z,37.54
2019-02-17T10:45:18.510Z,37.12
2019-02-17T10:46:18.534Z,37.95
2019-02-17T10:47:18.538Z,39.45
2019-02-17T10:48:18.569Z,40.76
2019-02-17T10:49:19.388Z,42.23
2019-02-17T10:50:18.589Z,41.48
2019-02-17T10:51:18.621Z,41.27
2019-02-17T10:52:18.632Z,41.19
2019-02-17T10:53:18.657Z,40.55
2019-02-17T10:54:18.669Z,39.41
2019-02-17T10:55:18.683Z,38.46
2019-02-17T10:56:18.693Z,38.10
2019-02-17T10:57:18.717Z,37.79
2019-02-17T10:58:18.750Z,37.79
2019-02-17T10:59:18.757Z,37.24
2019-02-17T11:00:18.773Z,36.76
2019-02-17T11:01:18.791Z,36.12
2019-02-17T11:02:18.803Z,35.93
2019-02-17T11:03:18.826Z,35.56
2019-02-17T11:04:18.843Z,34.96
2019-02-17T11:05:18.868Z,35.72
2019-02-17T11:06:18.890Z,36.28
2019-02-17T11:07:18.893Z,36.40
2019-02-17T11:08:18.916Z,36.22
2019-02-17T11:09:18.929Z,35.66
2019-02-17T11:10:18.952Z,34.80
2019-02-17T11:11:18.974Z,34.30
2019-02-17T11:12:18.995Z,34.67
2019-02-17T11:13:19.014Z,35.21
2019-02-17T11:14:19.027Z,37.10
2019-02-17T11:15:19.042Z,37.95
2019-02-17T11:16:19.064Z,38.41
2019-02-17T11:17:19.089Z,39.18
2019-02-17T11:18:19.096Z,39.36
2019-02-17T11:19:19.128Z,39.39
2019-02-17T11:20:19.129Z,37.90
2019-02-17T11:21:19.152Z,36.92
2019-02-17T11:22:23.147Z,38.04
2019-02-17T11:23:19.185Z,38.12
2019-02-17T11:24:19.210Z,39.66
2019-02-17T11:25:19.224Z,40.61
2019-02-17T11:26:19.323Z,40.59
2019-02-17T11:27:19.256Z,40.32
2019-02-17T11:28:19.280Z,40.44
2019-02-17T11:29:19.299Z,40.05
2019-02-17T11:30:19.344Z,39.47
2019-02-17T11:31:19.331Z,39.37
2019-02-17T11:32:19.347Z,39.47
2019-02-17T11:33:19.378Z,39.39
2019-02-17T11:34:19.382Z,38.56
2019-02-17T11:35:19.410Z,37.17
2019-02-17T11:36:19.419Z,35.85
2019-02-17T11:37:19.440Z,34.14
2019-02-17T11:38:19.456Z,32.99
2019-02-17T11:39:19.487Z,33.81
2019-02-17T11:40:19.493Z,33.92
2019-02-17T11:41:19.509Z,33.92
2019-02-17T11:42:19.521Z,34.01
2019-02-17T11:43:19.545Z,34.96
2019-02-17T11:44:19.563Z,36.05
2019-02-17T11:45:19.579Z,36.82
2019-02-17T11:46:19.617Z,37.67
2019-02-17T11:47:19.619Z,38.35
2019-02-17T11:48:19.635Z,38.33
2019-02-17T11:49:19.652Z,39.37
2019-02-17T11:50:19.673Z,39.69
2019-02-17T11:51:19.686Z,39.03
2019-02-17T11:52:19.705Z,39.01
2019-02-17T11:53:19.724Z,39.12
2019-02-17T11:54:19.743Z,38.76
2019-02-17T11:55:19.760Z,38.02
2019-02-17T11:56:19.780Z,36.80
2019-02-17T11:57:19.798Z,35.19
2019-02-17T11:58:19.816Z,34.16
2019-02-17T11:59:19.835Z,33.12
2019-02-17T12:00:19.859Z,31.98
2019-02-17T12:01:19.865Z,31.32
2019-02-17T12:02:24.952Z,30.54
2019-02-17T12:03:19.904Z,32.10
2019-02-17T12:04:19.923Z,33.52
2019-02-17T12:05:19.939Z,35.60
2019-02-17T12:06:19.960Z,36.76
2019-02-17T12:07:19.985Z,36.86
2019-02-17T12:08:19.995Z,36.41
2019-02-17T12:09:20.021Z,35.15
2019-02-17T12:10:20.035Z,35.80
2019-02-17T12:11:20.048Z,36.63
2019-02-17T12:12:20.068Z,38.99
2019-02-17T12:13:20.085Z,40.03
2019-02-17T12:14:20.108Z,40.07
2019-02-17T12:15:20.116Z,39.41
2019-02-17T12:16:20.141Z,38.28
2019-02-17T12:17:20.159Z,38.21
2019-02-17T12:18:20.181Z,36.43
2019-02-17T12:19:20.197Z,34.35
2019-02-17T12:20:20.213Z,33.12
2019-02-17T12:21:20.233Z,32.08
2019-02-17T12:22:20.246Z,30.77
2019-02-17T12:23:20.268Z,29.91
2019-02-17T12:24:20.287Z,29.04
2019-02-17T12:25:20.308Z,28.45
2019-02-17T12:26:20.343Z,28.19
2019-02-17T12:27:20.330Z,27.70
2019-02-17T12:28:20.366Z,27.12
2019-02-17T12:29:20.381Z,27.31
2019-02-17T12:30:20.394Z,27.42
2019-02-17T12:31:20.415Z,27.15
2019-02-17T12:32:20.424Z,26.72
2019-02-17T12:33:21.836Z,27.66
2019-02-17T12:34:20.475Z,28.70
2019-02-17T12:35:20.488Z,28.63
2019-02-17T12:36:20.514Z,28.55
2019-02-17T12:37:20.526Z,27.79
2019-02-17T12:38:20.549Z,27.13
2019-02-17T12:39:20.562Z,26.31
2019-02-17T12:40:20.726Z,27.18
2019-02-17T12:41:20.611Z,27.48
2019-02-17T12:42:20.619Z,30.15
2019-02-17T12:43:20.726Z,32.12
2019-02-17T12:44:20.664Z,34.48
2019-02-17T12:45:20.677Z,36.38
2019-02-17T12:46:20.702Z,36.80
2019-02-17T12:47:20.715Z,36.15
2019-02-17T12:48:20.734Z,35.12
2019-02-17T12:49:20.753Z,34.09
2019-02-17T12:50:20.820Z,33.22
2019-02-17T12:51:20.792Z,32.76
2019-02-17T12:52:20.849Z,32.20
2019-02-17T12:53:20.820Z,31.74
2019-02-17T12:54:28.896Z,30.59
2019-02-17T12:55:20.858Z,30.50
2019-02-17T12:56:20.879Z,30.68
2019-02-17T12:57:20.906Z,30.97
2019-02-17T12:58:29.570Z,32.84
2019-02-17T12:59:20.932Z,30.46
2019-02-17T13:00:20.958Z,27.58
2019-02-17T13:01:20.971Z,26.63
2019-02-17T13:02:20.996Z,26.13
2019-02-17T13:03:28.309Z,26.31
2019-02-17T13:04:21.020Z,27.11
2019-02-17T13:05:21.043Z,29.51
2019-02-17T13:06:21.083Z,29.80
2019-02-17T13:07:21.082Z,30.00
2019-02-17T13:08:21.115Z,29.54
2019-02-17T13:09:21.108Z,28.50
2019-02-17T13:10:21.189Z,27.75
2019-02-17T13:11:21.159Z,27.16
2019-02-17T13:12:21.181Z,27.00
2019-02-17T13:13:21.188Z,26.42
2019-02-17T13:14:21.208Z,25.84
2019-02-17T13:15:21.228Z,25.57
2019-02-17T13:16:21.244Z,25.27
2019-02-17T13:17:21.263Z,25.10
2019-02-17T13:18:21.277Z,24.91
2019-02-17T13:19:21.322Z,24.32
2019-02-17T13:20:21.322Z,25.15
2019-02-17T13:21:21.330Z,25.52
2019-02-17T13:22:21.355Z,27.04
2019-02-17T13:23:21.373Z,27.59
2019-02-17T13:24:21.401Z,29.30
2019-02-17T13:25:21.417Z,30.63
2019-02-17T13:26:21.441Z,32.37
2019-02-17T13:27:21.458Z,31.89
2019-02-17T13:28:21.460Z,32.00
2019-02-17T13:29:21.484Z,31.27
2019-02-17T13:30:21.494Z,29.91
2019-02-17T13:31:21.519Z,30.09
2019-02-17T13:32:21.525Z,30.66
2019-02-17T13:33:21.555Z,30.76
2019-02-17T13:34:21.572Z,30.98
2019-02-17T13:36:21.615Z,29.80
2019-02-17T13:37:21.622Z,30.27
2019-02-17T13:38:21.636Z,30.87
2019-02-17T13:39:21.674Z,30.02
2019-02-17T13:40:21.684Z,29.85
2019-02-17T13:41:21.694Z,28.13
2019-02-17T13:42:21.707Z,27.45
2019-02-17T13:43:21.752Z,27.43
2019-02-17T13:44:21.747Z,28.85
2019-02-17T13:45:21.767Z,29.62
2019-02-17T13:46:21.796Z,29.90
2019-02-17T13:47:21.799Z,30.00
2019-02-17T13:48:21.815Z,30.57
2019-02-17T13:49:21.843Z,30.76
2019-02-17T13:50:22.191Z,30.47
2019-02-17T13:51:21.878Z,30.85
2019-02-17T13:52:21.882Z,30.85
2019-02-17T13:53:21.908Z,30.94
2019-02-17T13:54:21.916Z,30.94
2019-02-17T13:55:21.935Z,31.63
2019-02-17T13:56:21.968Z,31.08
2019-02-17T13:57:21.974Z,29.64
2019-02-17T13:58:21.984Z,29.62
2019-02-17T13:59:22.005Z,29.55
2019-02-17T14:00:22.026Z,28.23
2019-02-17T14:01:22.038Z,27.45
2019-02-17T14:02:22.062Z,27.45
2019-02-17T14:03:22.079Z,27.70
2019-02-17T14:04:22.093Z,29.33
2019-02-17T14:05:22.121Z,29.62
2019-02-17T14:06:22.129Z,30.18
2019-02-17T14:07:22.148Z,31.59
2019-02-17T14:08:22.175Z,32.26
2019-02-17T14:09:22.177Z,32.24
2019-02-17T14:10:22.190Z,33.26
2019-02-17T14:11:22.205Z,33.95
2019-02-17T14:12:22.229Z,33.49
2019-02-17T14:13:22.253Z,33.12
2019-02-17T14:14:22.261Z,32.91
2019-02-17T14:15:22.276Z,33.10
2019-02-17T14:16:22.297Z,32.71
2019-02-17T14:17:22.321Z,33.10
2019-02-17T14:18:22.340Z,33.09
2019-02-17T14:19:22.343Z,34.38
2019-02-17T14:20:22.389Z,35.80
2019-02-17T14:21:22.385Z,36.50
2019-02-17T14:22:22.390Z,36.03
2019-02-17T14:23:22.423Z,35.76
2019-02-17T14:24:22.423Z,34.91
2019-02-17T14:25:22.464Z,34.33
2019-02-17T14:26:22.469Z,34.50
2019-02-17T14:27:22.480Z,35.14
2019-02-17T14:28:22.505Z,36.29
2019-02-17T14:29:22.516Z,36.67
2019-02-17T14:30:22.530Z,36.79
2019-02-17T14:31:22.556Z,36.88
2019-02-17T14:32:22.560Z,36.24
2019-02-17T14:33:22.579Z,35.10
2019-02-17T14:34:22.606Z,34.83
2019-02-17T14:35:22.612Z,34.07
2019-02-17T14:36:22.627Z,33.01
2019-02-17T14:37:22.653Z,32.99
2019-02-17T14:38:22.658Z,34.21
2019-02-17T14:39:22.675Z,35.06
2019-02-17T14:40:22.690Z,35.72
2019-02-17T14:41:22.723Z,36.65
2019-02-17T14:42:22.723Z,37.13
2019-02-17T14:43:22.744Z,37.15
2019-02-17T14:44:22.749Z,37.13
2019-02-17T14:45:22.768Z,37.93
2019-02-17T14:46:22.802Z,36.90
2019-02-17T14:47:22.813Z,36.42
2019-02-17T14:48:22.830Z,35.28
2019-02-17T14:49:22.838Z,34.70
2019-02-17T14:50:22.877Z,34.29
2019-02-17T14:51:22.869Z,34.95
2019-02-17T14:52:22.896Z,35.53
2019-02-17T14:53:22.898Z,35.61
2019-02-17T14:54:22.922Z,35.53
2019-02-17T14:55:22.939Z,34.45
2019-02-17T14:57:22.964Z,33.29
2019-02-17T14:58:22.980Z,33.86
2019-02-17T14:59:23.797Z,33.78
2019-02-17T15:00:23.021Z,33.22
2019-02-17T15:01:23.029Z,32.94
2019-02-17T15:02:23.045Z,32.64
2019-02-17T15:03:23.065Z,33.20
2019-02-17T15:04:23.078Z,33.22
2019-02-17T15:05:23.102Z,32.75
2019-02-17T15:06:23.107Z,32.28
2019-02-17T15:07:23.121Z,32.38
2019-02-17T15:08:23.140Z,32.07
2019-02-17T15:09:23.151Z,32.75
2019-02-17T15:10:23.170Z,32.65
2019-02-17T15:11:23.186Z,32.36
2019-02-17T15:12:23.201Z,32.73
2019-02-17T15:13:24.740Z,32.92
2019-02-17T15:14:23.233Z,33.31
2019-02-17T15:15:23.246Z,33.02
2019-02-17T15:16:23.279Z,32.92
2019-02-17T15:17:23.279Z,32.91
2019-02-17T15:18:23.295Z,33.18
2019-02-17T15:19:23.300Z,33.86
2019-02-17T15:20:23.323Z,34.14
2019-02-17T15:21:23.342Z,33.86
2019-02-17T15:22:23.355Z,33.48
2019-02-17T15:23:23.374Z,33.12
2019-02-17T15:24:23.392Z,33.14
2019-02-17T15:25:23.401Z,32.07
2019-02-17T15:26:23.417Z,31.99
2019-02-17T15:27:23.457Z,31.68
2019-02-17T15:28:23.449Z,32.43
2019-02-17T15:29:23.467Z,32.54
2019-02-17T15:30:23.476Z,32.91
2019-02-17T15:31:23.491Z,32.62
2019-02-17T15:32:23.514Z,32.56
2019-02-17T15:33:23.530Z,31.99
2019-02-17T15:34:23.527Z,31.23
2019-02-17T15:35:24.394Z,30.58
2019-02-17T15:36:23.580Z,29.83
2019-02-17T15:37:23.582Z,29.26
2019-02-17T15:38:23.613Z,28.87
2019-02-17T15:39:23.616Z,28.89
2019-02-17T15:40:23.661Z,28.69
2019-02-17T15:41:23.651Z,28.32
2019-02-17T15:42:23.657Z,28.22
2019-02-17T15:43:23.688Z,28.03
2019-02-17T15:44:23.682Z,27.84
2019-02-17T15:45:23.700Z,27.84
2019-02-17T15:46:23.719Z,28.23
2019-02-17T15:47:23.738Z,29.21
2019-02-17T15:48:23.755Z,29.87
2019-02-17T15:49:23.775Z,30.15
2019-02-17T15:50:23.778Z,30.82
2019-02-17T15:51:23.797Z,31.68
2019-02-17T15:52:23.811Z,32.15
2019-02-17T15:53:23.823Z,32.64
2019-02-17T15:54:23.833Z,32.54
2019-02-17T15:55:23.865Z,33.22
2019-02-17T15:56:23.885Z,33.29
2019-02-17T15:57:23.880Z,34.05
2019-02-17T15:58:23.901Z,34.54
2019-02-17T15:59:23.910Z,35.20
2019-02-17T16:00:23.945Z,35.47
2019-02-17T16:01:23.935Z,35.86
2019-02-17T16:02:23.952Z,35.95
2019-02-17T16:03:23.971Z,36.24
2019-02-17T16:04:28.491Z,36.34
2019-02-17T16:05:24.005Z,36.44
2019-02-17T16:06:24.013Z,36.42
2019-02-17T16:07:24.030Z,37.02
2019-02-17T16:08:24.051Z,37.19
2019-02-17T16:09:24.042Z,37.21
2019-02-17T16:10:24.073Z,36.82
2019-02-17T16:11:24.083Z,36.92
2019-02-17T16:12:24.090Z,36.72
2019-02-17T16:13:24.108Z,36.72
2019-02-17T16:14:24.116Z,37.19
2019-02-17T16:15:24.123Z,37.10
2019-02-17T16:16:24.142Z,37.95
2019-02-17T16:17:24.167Z,37.83
2019-02-17T16:18:24.173Z,38.49
2019-02-17T16:19:24.209Z,38.95
2019-02-17T16:20:24.214Z,40.66
2019-02-17T16:21:24.218Z,41.24
2019-02-17T16:22:24.237Z,41.53
2019-02-17T16:23:24.249Z,41.89
2019-02-17T16:24:24.250Z,42.26
2019-02-17T16:25:24.270Z,42.26
2019-02-17T16:26:24.287Z,42.72
2019-02-17T16:27:24.291Z,43.01
2019-02-17T16:28:24.318Z,43.95
2019-02-17T16:29:24.330Z,43.47
2019-02-17T16:30:24.332Z,44.05
2019-02-17T16:31:24.342Z,43.95
2019-02-17T16:32:24.359Z,44.43
2019-02-17T16:33:24.368Z,44.82
2019-02-17T16:34:24.375Z,45.18
2019-02-17T16:35:24.398Z,45.66
2019-02-17T16:36:24.417Z,44.99
2019-02-17T16:37:24.758Z,45.47
2019-02-17T16:38:24.439Z,46.23
2019-02-17T16:39:24.452Z,46.41
2019-02-17T16:40:24.461Z,46.69
2019-02-17T16:41:24.496Z,47.27
2019-02-17T16:42:24.491Z,47.27
2019-02-17T16:43:24.496Z,47.36
2019-02-17T16:44:24.512Z,48.23
2019-02-17T16:45:24.516Z,48.21
2019-02-17T16:46:24.526Z,48.69
2019-02-17T16:47:24.537Z,48.69
2019-02-17T16:48:24.559Z,48.79
2019-02-17T16:49:24.737Z,49.62
2019-02-17T16:50:24.594Z,49.72
2019-02-17T16:51:24.572Z,49.43
2019-02-17T16:52:24.588Z,49.72
2019-02-17T16:53:24.626Z,50.39
2019-02-17T16:54:24.616Z,50.96
2019-02-17T16:55:24.622Z,50.87
2019-02-17T16:56:24.631Z,51.61
2019-02-17T16:57:24.648Z,51.32
2019-02-17T16:58:24.650Z,51.14
2019-02-17T16:59:24.675Z,51.71
2019-02-17T17:00:24.669Z,52.28
2019-02-17T17:01:24.683Z,52.19
2019-02-17T17:02:24.721Z,52.45
2019-02-17T17:03:24.708Z,52.57
2019-02-17T17:04:24.724Z,53.03
2019-02-17T17:05:24.748Z,52.74
2019-02-17T17:06:24.748Z,53.03
2019-02-17T17:07:24.766Z,53.03
2019-02-17T17:08:24.766Z,53.22
2019-02-17T17:09:24.777Z,53.60
2019-02-17T17:10:24.787Z,53.28
2019-02-17T17:11:24.796Z,53.09
2019-02-17T17:12:25.018Z,53.58
2019-02-17T17:13:24.827Z,53.86
2019-02-17T17:14:24.825Z,53.38
2019-02-17T17:15:24.838Z,54.15
2019-02-17T17:16:24.854Z,54.24
2019-02-17T17:17:24.857Z,55.01
2019-02-17T17:18:24.930Z,55.01
2019-02-17T17:19:24.888Z,54.24
2019-02-17T17:20:24.888Z,55.40
2019-02-17T17:21:25.370Z,55.30
2019-02-17T17:22:24.909Z,56.16
2019-02-17T17:23:24.914Z,56.13
2019-02-17T17:24:24.925Z,56.42
2019-02-17T17:25:24.943Z,56.13
2019-02-17T17:26:24.949Z,56.52
2019-02-17T17:27:24.956Z,56.52
2019-02-17T17:28:25.902Z,56.71
2019-02-17T17:29:24.977Z,56.81
2019-02-17T17:30:24.980Z,56.59
2019-02-17T17:31:25.061Z,56.77
2019-02-17T17:32:25.006Z,57.35
2019-02-17T17:33:25.021Z,57.73
2019-02-17T17:34:25.026Z,57.73
2019-02-17T17:35:25.038Z,57.54
2019-02-17T17:36:25.042Z,57.64
2019-02-17T17:37:25.054Z,57.83
2019-02-17T17:38:25.053Z,58.40
2019-02-17T17:39:25.088Z,58.98
2019-02-17T17:40:25.088Z,58.95
2019-02-17T17:41:25.100Z,59.43
2019-02-17T17:42:25.114Z,59.05
2019-02-17T17:43:25.118Z,59.05
2019-02-17T17:44:25.125Z,59.62
2019-02-17T17:45:25.136Z,59.88
2019-02-17T17:46:25.132Z,59.88
2019-02-17T17:47:25.150Z,60.35
2019-02-17T17:48:25.194Z,60.64
2019-02-17T17:49:25.164Z,60.26
2019-02-17T17:50:25.177Z,60.74
2019-02-17T17:51:25.192Z,60.74
2019-02-17T17:52:25.189Z,60.90
2019-02-17T17:53:25.209Z,60.13
2019-02-17T17:54:25.220Z,61.38
2019-02-17T17:55:25.228Z,61.85
2019-02-17T17:56:25.236Z,62.24
2019-02-17T17:57:25.247Z,62.90
2019-02-17T17:58:25.263Z,62.81
2019-02-17T17:59:25.262Z,62.90
2019-02-17T18:00:25.291Z,62.78
2019-02-17T18:01:25.283Z,62.59
2019-02-17T18:02:25.292Z,63.07
2019-02-17T18:03:25.314Z,62.97
2019-02-17T18:04:25.311Z,63.16
2019-02-17T18:05:25.329Z,63.45
2019-02-17T18:06:25.326Z,63.64
2019-02-17T18:07:25.343Z,63.54
2019-02-17T18:08:25.349Z,62.97
2019-02-17T18:09:25.360Z,63.16
2019-02-17T18:10:25.364Z,63.16
2019-02-17T18:11:25.367Z,63.26
2019-02-17T18:12:25.384Z,63.07
2019-02-17T18:13:25.402Z,63.07
2019-02-17T18:14:25.405Z,63.16
2019-02-17T18:15:25.412Z,62.49
2019-02-17T18:16:25.411Z,61.35
2019-02-17T18:17:25.426Z,61.54
2019-02-17T18:18:25.482Z,61.63
2019-02-17T18:19:25.463Z,61.72
2019-02-17T18:20:25.446Z,61.25
2019-02-17T18:21:25.469Z,61.63
2019-02-17T18:22:25.489Z,62.11
2019-02-17T18:23:25.484Z,62.40
2019-02-17T18:24:26.821Z,62.78
2019-02-17T18:25:25.497Z,62.40
2019-02-17T18:26:25.507Z,62.40
2019-02-17T18:27:25.526Z,63.89
2019-02-17T18:28:25.525Z,64.18
2019-02-17T18:29:25.534Z,64.37
2019-02-17T18:30:25.538Z,64.18
2019-02-17T18:31:25.561Z,64.65
2019-02-17T18:32:25.564Z,64.28
2019-02-17T18:33:25.578Z,64.18
2019-02-17T18:34:25.574Z,64.09
2019-02-17T18:35:25.605Z,63.99
2019-02-17T18:36:25.601Z,64.28
2019-02-17T18:37:25.601Z,64.78
2019-02-17T18:38:25.612Z,64.12
2019-02-17T18:39:25.622Z,64.18
2019-02-17T18:40:25.632Z,63.03
2019-02-17T18:41:25.634Z,64.09
2019-02-17T18:42:25.644Z,64.09
2019-02-17T18:43:25.663Z,64.09
2019-02-17T18:44:25.669Z,64.75
2019-02-17T18:45:25.660Z,63.42
2019-02-17T18:46:26.436Z,61.60
2019-02-17T18:47:25.694Z,61.51
2019-02-17T18:48:25.695Z,62.08
2019-02-17T18:49:25.716Z,63.23
2019-02-17T18:50:25.722Z,63.32
2019-02-17T18:51:25.735Z,62.55
2019-02-17T18:52:25.734Z,63.03
2019-02-17T18:53:25.743Z,63.80
2019-02-17T18:54:25.748Z,64.05
2019-02-17T18:55:25.759Z,63.20
2019-02-17T18:56:25.769Z,63.10
2019-02-17T18:57:25.771Z,62.91
2019-02-17T18:58:25.780Z,62.71
2019-02-17T18:59:25.811Z,62.81
2019-02-17T19:00:25.802Z,61.47
2019-02-17T19:01:25.796Z,61.00
2019-02-17T19:02:25.815Z,61.76
2019-02-17T19:03:25.834Z,62.34
2019-02-17T19:04:25.843Z,62.43
2019-02-17T19:05:32.059Z,61.57
2019-02-17T19:06:25.849Z,61.76
2019-02-17T19:07:25.872Z,62.52
2019-02-17T19:08:25.855Z,62.52
2019-02-17T19:09:25.876Z,61.76
2019-02-17T19:10:25.886Z,62.52
2019-02-17T19:11:25.885Z,63.00
2019-02-17T19:12:25.898Z,61.86
2019-02-17T19:13:25.918Z,61.66
2019-02-17T19:14:25.919Z,62.34
2019-02-17T19:15:25.933Z,61.57
2019-02-17T19:16:25.934Z,61.47
2019-02-17T19:17:25.935Z,60.24
2019-02-17T19:18:25.948Z,60.04
2019-02-17T19:19:25.966Z,59.85
2019-02-17T19:20:25.967Z,59.95
2019-02-17T19:21:27.411Z,59.85
2019-02-17T19:22:25.976Z,59.76
2019-02-17T19:23:25.996Z,60.04
2019-02-17T19:24:25.997Z,59.85
2019-02-17T19:25:26.004Z,61.19
2019-02-17T19:26:26.015Z,59.95
2019-02-17T19:27:26.024Z,60.24
2019-02-17T19:28:26.031Z,59.85
2019-02-17T19:29:26.040Z,59.76
2019-02-17T19:30:26.061Z,59.28
2019-02-17T19:31:26.047Z,59.38
2019-02-17T19:32:26.065Z,59.95
2019-02-17T19:33:26.072Z,61.00
2019-02-17T19:34:26.092Z,61.19
2019-02-17T19:35:26.079Z,59.95
2019-02-17T19:36:26.094Z,60.33
2019-02-17T19:37:26.106Z,61.19
2019-02-17T19:38:26.114Z,62.24
2019-02-17T19:39:26.149Z,62.05
2019-02-17T19:40:26.130Z,60.24
2019-02-17T19:41:26.134Z,61.47
2019-02-17T19:42:26.151Z,62.43
2019-02-17T19:43:26.170Z,62.81
2019-02-17T19:44:26.175Z,62.52
2019-02-17T19:45:26.165Z,62.71
2019-02-17T19:46:26.170Z,62.59
2019-02-17T19:47:26.192Z,62.40
2019-02-17T19:48:26.199Z,62.59
2019-02-17T19:49:26.202Z,63.16
2019-02-17T19:50:26.213Z,62.11
2019-02-17T19:51:26.217Z,61.73
2019-02-17T19:52:26.229Z,61.07
2019-02-17T19:53:26.223Z,62.30
2019-02-17T19:54:26.232Z,62.97
2019-02-17T19:55:26.258Z,63.45
2019-02-17T19:56:26.250Z,64.02
2019-02-17T19:57:26.265Z,62.11
2019-02-17T19:58:26.270Z,63.35
2019-02-17T19:59:26.275Z,63.73
2019-02-17T20:00:26.291Z,63.73
2019-02-17T20:01:26.285Z,64.02
2019-02-17T20:02:26.309Z,64.69
2019-02-17T20:03:26.306Z,65.36
2019-02-17T20:04:26.326Z,64.78
2019-02-17T20:05:26.322Z,65.17
2019-02-17T20:06:26.329Z,65.17
2019-02-17T20:07:26.344Z,65.17
2019-02-17T20:08:26.346Z,65.55
2019-02-17T20:09:26.346Z,65.61
2019-02-17T20:10:26.427Z,65.52
2019-02-17T20:11:26.365Z,65.23
2019-02-17T20:12:26.374Z,65.42
2019-02-17T20:13:26.386Z,65.61
2019-02-17T20:14:26.398Z,65.33
2019-02-17T20:15:26.400Z,65.52
2019-02-17T20:16:26.416Z,65.70
2019-02-17T20:17:26.412Z,66.38
2019-02-17T20:18:26.426Z,66.75
2019-02-17T20:19:26.438Z,66.94
2019-02-17T20:20:26.440Z,66.56
2019-02-17T20:21:26.459Z,66.94
2019-02-17T20:22:26.452Z,67.04
2019-02-17T20:23:26.483Z,67.04
2019-02-17T20:24:26.465Z,66.66
2019-02-17T20:25:26.462Z,66.75
2019-02-17T20:26:26.480Z,67.52
2019-02-17T20:27:26.481Z,67.52
2019-02-17T20:28:40.654Z,66.94
2019-02-17T20:29:26.501Z,67.23
2019-02-17T20:30:26.509Z,67.04
2019-02-17T20:31:26.517Z,67.33
2019-02-17T20:32:26.540Z,67.23
2019-02-17T20:33:26.527Z,66.94
2019-02-17T20:34:26.548Z,67.04
2019-02-17T20:35:26.549Z,67.39
2019-02-17T20:36:26.555Z,67.48
2019-02-17T20:37:26.570Z,67.48
2019-02-17T20:38:26.580Z,66.63
2019-02-17T20:39:26.571Z,67.42
2019-02-17T20:40:26.586Z,67.58
2019-02-17T20:41:26.612Z,67.77
2019-02-17T20:42:26.615Z,67.14
2019-02-17T20:43:26.609Z,67.00
2019-02-17T20:44:26.609Z,65.29
2019-02-17T20:45:26.616Z,65.52
2019-02-17T20:46:26.638Z,65.13
2019-02-17T20:47:26.636Z,65.58
2019-02-17T20:48:26.636Z,66.24
2019-02-17T20:49:26.654Z,66.85
2019-02-17T20:50:26.661Z,67.52
2019-02-17T20:51:26.658Z,67.68
2019-02-17T20:52:26.678Z,66.91
2019-02-17T20:53:26.683Z,66.72
2019-02-17T20:54:26.689Z,66.91
2019-02-17T20:55:26.699Z,66.24
2019-02-17T20:56:26.694Z,66.53
2019-02-17T20:57:26.711Z,67.29
2019-02-17T20:58:26.714Z,67.48
2019-02-17T20:59:26.727Z,67.29
2019-02-17T21:00:26.743Z,67.96
2019-02-17T21:01:26.741Z,66.82
2019-02-17T21:02:26.744Z,66.44
2019-02-17T21:03:26.754Z,67.48
2019-02-17T21:04:26.759Z,67.77
2019-02-17T21:05:26.763Z,68.24
2019-02-17T21:06:26.770Z,68.24
2019-02-17T21:07:26.784Z,68.15
2019-02-17T21:08:26.805Z,67.58
2019-02-17T21:09:26.791Z,66.82
2019-02-17T21:10:26.813Z,67.10
2019-02-17T21:11:26.806Z,67.96
2019-02-17T21:12:26.813Z,67.29
2019-02-17T21:13:26.824Z,67.29
2019-02-17T21:14:26.833Z,67.86
2019-02-17T21:15:26.836Z,67.68
2019-02-17T21:16:26.846Z,67.77
2019-02-17T21:17:26.852Z,67.29
2019-02-17T21:18:26.860Z,67.96
2019-02-17T21:19:26.864Z,67.10
2019-02-17T21:20:26.883Z,67.39
2019-02-17T21:21:26.893Z,66.53
2019-02-17T21:22:26.890Z,66.82